sensor_id;sensor_type;location;lat;lon;timestamp;temperature;humidity
23081;DHT22;11708;50.570;8.532;2022-12-17T00:00:59;-7.40;99.90
23081;DHT22;11708;50.570;8.532;2022-12-17T00:03:44;-7.40;99.90
23081;DHT22;11708;50.570;8.532;2022-12-17T00:06:28;-7.40;99.90
23081;DHT22;11708;50.570;8.532;2022-12-17T00:09:12;-7.40;99.90
23081;DHT22;11708;50.570;8.532;2022-12-17T00:11:56;-7.40;99.90
23081;DHT22;11708;50.570;8.532;2022-12-17T00:14:40;-7.50;99.90
23081;DHT22;11708;50.570;8.532;2022-12-17T00:17:25;-7.50;99.90
23081;DHT22;11708;50.570;8.532;2022-12-17T00:20:09;-7.50;99.90
23081;DHT22;11708;50.570;8.532;2022-12-17T00:23:01;-7.60;99.90
23081;DHT22;11708;50.570;8.532;2022-12-17T00:25:50;-7.60;99.90
23081;DHT22;11708;50.570;8.532;2022-12-17T00:28:35;-7.60;99.90
23081;DHT22;11708;50.570;8.532;2022-12-17T00:31:19;-7.60;99.90
23081;DHT22;11708;50.570;8.532;2022-12-17T00:34:03;-7.60;99.90
23081;DHT22;11708;50.570;8.532;2022-12-17T00:36:47;-7.70;99.90
23081;DHT22;11708;50.570;8.532;2022-12-17T00:39:31;-7.80;99.90
23081;DHT22;11708;50.570;8.532;2022-12-17T00:42:15;-7.80;99.90
23081;DHT22;11708;50.570;8.532;2022-12-17T00:44:59;-7.80;99.90
23081;DHT22;11708;50.570;8.532;2022-12-17T00:47:43;-7.80;99.90
23081;DHT22;11708;50.570;8.532;2022-12-17T00:50:28;-7.80;99.90
23081;DHT22;11708;50.570;8.532;2022-12-17T00:55:58;-7.90;99.90
23081;DHT22;11708;50.570;8.532;2022-12-17T00:58:42;-7.90;99.90
23081;DHT22;11708;50.570;8.532;2022-12-17T01:01:26;-7.90;99.90
23081;DHT22;11708;50.570;8.532;2022-12-17T01:04:10;-8.00;99.90
23081;DHT22;11708;50.570;8.532;2022-12-17T01:06:54;-8.00;99.90
23081;DHT22;11708;50.570;8.532;2022-12-17T01:09:38;-8.00;99.90
23081;DHT22;11708;50.570;8.532;2022-12-17T01:12:22;-8.00;99.90
23081;DHT22;11708;50.570;8.532;2022-12-17T01:15:07;-8.00;99.90
23081;DHT22;11708;50.570;8.532;2022-12-17T01:17:51;-8.00;99.90
23081;DHT22;11708;50.570;8.532;2022-12-17T01:20:35;-8.10;99.90
23081;DHT22;11708;50.570;8.532;2022-12-17T01:23:19;-8.00;99.90
23081;DHT22;11708;50.570;8.532;2022-12-17T01:26:03;-8.10;99.90
23081;DHT22;11708;50.570;8.532;2022-12-17T01:28:47;-8.00;99.90
23081;DHT22;11708;50.570;8.532;2022-12-17T01:34:15;-8.10;99.90
23081;DHT22;11708;50.570;8.532;2022-12-17T01:36:59;-8.00;99.90
23081;DHT22;11708;50.570;8.532;2022-12-17T01:39:43;-8.00;99.90
23081;DHT22;11708;50.570;8.532;2022-12-17T01:42:39;-8.00;99.90
23081;DHT22;11708;50.570;8.532;2022-12-17T01:45:25;-8.00;99.90
23081;DHT22;11708;50.570;8.532;2022-12-17T01:48:14;-8.00;99.90
23081;DHT22;11708;50.570;8.532;2022-12-17T01:51:01;-8.00;99.90
23081;DHT22;11708;50.570;8.532;2022-12-17T01:53:49;-8.00;99.90
23081;DHT22;11708;50.570;8.532;2022-12-17T01:56:35;-8.00;99.90
23081;DHT22;11708;50.570;8.532;2022-12-17T01:59:28;-8.10;99.90
23081;DHT22;11708;50.570;8.532;2022-12-17T02:02:13;-7.50;99.90
23081;DHT22;11708;50.570;8.532;2022-12-17T02:04:57;-8.10;99.90
23081;DHT22;11708;50.570;8.532;2022-12-17T02:08:04;-8.10;99.90
23081;DHT22;11708;50.570;8.532;2022-12-17T02:10:59;-8.10;99.90
23081;DHT22;11708;50.570;8.532;2022-12-17T02:14:02;-8.10;99.90
23081;DHT22;11708;50.570;8.532;2022-12-17T02:16:50;-8.20;99.90
23081;DHT22;11708;50.570;8.532;2022-12-17T02:26:11;-8.20;99.90
23081;DHT22;11708;50.570;8.532;2022-12-17T02:28:58;-8.20;99.90
23081;DHT22;11708;50.570;8.532;2022-12-17T02:31:45;-8.10;99.90
23081;DHT22;11708;50.570;8.532;2022-12-17T02:34:30;-8.20;99.90
23081;DHT22;11708;50.570;8.532;2022-12-17T02:37:17;-8.30;99.90
23081;DHT22;11708;50.570;8.532;2022-12-17T02:40:06;-8.20;99.90
23081;DHT22;11708;50.570;8.532;2022-12-17T02:42:50;-8.30;99.90
23081;DHT22;11708;50.570;8.532;2022-12-17T02:45:35;-8.20;99.90
23081;DHT22;11708;50.570;8.532;2022-12-17T02:48:19;-8.20;99.90
23081;DHT22;11708;50.570;8.532;2022-12-17T02:51:03;-8.20;99.90
23081;DHT22;11708;50.570;8.532;2022-12-17T02:53:50;-8.20;99.90
23081;DHT22;11708;50.570;8.532;2022-12-17T02:56:37;-8.20;99.90
23081;DHT22;11708;50.570;8.532;2022-12-17T02:59:22;-8.10;99.90
23081;DHT22;11708;50.570;8.532;2022-12-17T03:02:06;-8.10;99.90
23081;DHT22;11708;50.570;8.532;2022-12-17T03:04:50;-7.80;99.90
23081;DHT22;11708;50.570;8.532;2022-12-17T03:10:19;-7.90;99.90
23081;DHT22;11708;50.570;8.532;2022-12-17T03:13:02;-7.90;99.90
23081;DHT22;11708;50.570;8.532;2022-12-17T03:15:47;-7.80;99.90
23081;DHT22;11708;50.570;8.532;2022-12-17T03:18:31;-7.80;99.90
23081;DHT22;11708;50.570;8.532;2022-12-17T03:21:15;-7.80;99.90
23081;DHT22;11708;50.570;8.532;2022-12-17T03:23:59;-7.80;99.90
23081;DHT22;11708;50.570;8.532;2022-12-17T03:26:43;-7.70;99.90
23081;DHT22;11708;50.570;8.532;2022-12-17T03:29:29;-7.70;99.90
23081;DHT22;11708;50.570;8.532;2022-12-17T03:32:13;-7.70;99.90
23081;DHT22;11708;50.570;8.532;2022-12-17T03:34:57;-7.60;99.90
23081;DHT22;11708;50.570;8.532;2022-12-17T03:37:41;-7.60;99.90
23081;DHT22;11708;50.570;8.532;2022-12-17T03:40:25;-7.60;99.90
23081;DHT22;11708;50.570;8.532;2022-12-17T03:43:10;-7.50;99.90
23081;DHT22;11708;50.570;8.532;2022-12-17T03:45:55;-7.50;99.90
23081;DHT22;11708;50.570;8.532;2022-12-17T03:48:40;-7.50;99.90
23081;DHT22;11708;50.570;8.532;2022-12-17T03:51:24;-7.40;99.90
23081;DHT22;11708;50.570;8.532;2022-12-17T03:54:11;-7.50;99.90
23081;DHT22;11708;50.570;8.532;2022-12-17T03:57:03;-7.40;99.90
23081;DHT22;11708;50.570;8.532;2022-12-17T03:59:47;-7.20;99.90
23081;DHT22;11708;50.570;8.532;2022-12-17T04:02:31;-7.40;99.90
23081;DHT22;11708;50.570;8.532;2022-12-17T04:05:15;-7.30;99.90
23081;DHT22;11708;50.570;8.532;2022-12-17T04:07:59;-7.30;99.90
23081;DHT22;11708;50.570;8.532;2022-12-17T04:10:43;-7.30;99.90
23081;DHT22;11708;50.570;8.532;2022-12-17T04:13:29;-7.30;99.90
23081;DHT22;11708;50.570;8.532;2022-12-17T04:16:13;-7.20;99.90
23081;DHT22;11708;50.570;8.532;2022-12-17T04:18:57;-7.30;99.90
23081;DHT22;11708;50.570;8.532;2022-12-17T04:21:41;-7.20;99.90
23081;DHT22;11708;50.570;8.532;2022-12-17T04:24:25;-7.20;99.90
23081;DHT22;11708;50.570;8.532;2022-12-17T04:27:09;-7.20;99.90
23081;DHT22;11708;50.570;8.532;2022-12-17T04:29:52;-7.20;99.90
23081;DHT22;11708;50.570;8.532;2022-12-17T04:32:37;-7.10;99.90
23081;DHT22;11708;50.570;8.532;2022-12-17T04:35:21;-7.10;99.90
23081;DHT22;11708;50.570;8.532;2022-12-17T04:38:05;-7.00;99.90
23081;DHT22;11708;50.570;8.532;2022-12-17T04:40:49;-7.00;99.90
23081;DHT22;11708;50.570;8.532;2022-12-17T04:43:34;-6.90;99.90
23081;DHT22;11708;50.570;8.532;2022-12-17T04:46:18;-6.90;99.90
23081;DHT22;11708;50.570;8.532;2022-12-17T04:49:02;-6.90;99.90
23081;DHT22;11708;50.570;8.532;2022-12-17T04:51:47;-6.70;99.90
23081;DHT22;11708;50.570;8.532;2022-12-17T04:54:31;-6.80;99.90
23081;DHT22;11708;50.570;8.532;2022-12-17T04:57:15;-6.80;99.90
23081;DHT22;11708;50.570;8.532;2022-12-17T04:59:59;-6.70;99.90
23081;DHT22;11708;50.570;8.532;2022-12-17T05:02:44;-6.70;99.90
23081;DHT22;11708;50.570;8.532;2022-12-17T05:05:28;-6.60;99.90
23081;DHT22;11708;50.570;8.532;2022-12-17T05:08:12;-6.60;99.90
23081;DHT22;11708;50.570;8.532;2022-12-17T05:11:04;-6.60;99.90
23081;DHT22;11708;50.570;8.532;2022-12-17T05:13:49;-6.60;99.90
23081;DHT22;11708;50.570;8.532;2022-12-17T05:19:17;-6.50;99.90
23081;DHT22;11708;50.570;8.532;2022-12-17T05:22:01;-6.50;99.90
23081;DHT22;11708;50.570;8.532;2022-12-17T05:24:45;-6.50;99.90
23081;DHT22;11708;50.570;8.532;2022-12-17T05:27:29;-6.50;99.90
23081;DHT22;11708;50.570;8.532;2022-12-17T05:30:14;-6.40;99.90
23081;DHT22;11708;50.570;8.532;2022-12-17T05:33:02;-6.40;99.90
23081;DHT22;11708;50.570;8.532;2022-12-17T05:35:46;-6.40;99.90
23081;DHT22;11708;50.570;8.532;2022-12-17T05:38:31;-6.40;99.90
23081;DHT22;11708;50.570;8.532;2022-12-17T05:41:15;-6.30;99.90
23081;DHT22;11708;50.570;8.532;2022-12-17T05:43:59;-6.30;99.90
23081;DHT22;11708;50.570;8.532;2022-12-17T05:46:43;-6.30;99.90
23081;DHT22;11708;50.570;8.532;2022-12-17T05:49:27;-6.20;99.90
23081;DHT22;11708;50.570;8.532;2022-12-17T05:52:11;-5.90;99.90
23081;DHT22;11708;50.570;8.532;2022-12-17T05:54:55;-6.20;99.90
23081;DHT22;11708;50.570;8.532;2022-12-17T05:57:39;-6.10;99.90
23081;DHT22;11708;50.570;8.532;2022-12-17T06:00:24;-6.10;99.90
23081;DHT22;11708;50.570;8.532;2022-12-17T06:03:08;-6.10;99.90
23081;DHT22;11708;50.570;8.532;2022-12-17T06:05:54;-6.10;99.90
23081;DHT22;11708;50.570;8.532;2022-12-17T06:08:38;-6.10;99.90
23081;DHT22;11708;50.570;8.532;2022-12-17T06:11:22;-6.10;99.90
23081;DHT22;11708;50.570;8.532;2022-12-17T06:14:07;-6.10;99.90
23081;DHT22;11708;50.570;8.532;2022-12-17T06:16:54;-6.10;99.90
23081;DHT22;11708;50.570;8.532;2022-12-17T06:19:39;-6.00;99.90
23081;DHT22;11708;50.570;8.532;2022-12-17T06:22:23;-6.00;99.90
23081;DHT22;11708;50.570;8.532;2022-12-17T06:25:07;-6.00;99.90
23081;DHT22;11708;50.570;8.532;2022-12-17T06:28:01;-6.00;99.90
23081;DHT22;11708;50.570;8.532;2022-12-17T06:30:53;-5.90;99.90
23081;DHT22;11708;50.570;8.532;2022-12-17T06:33:38;-5.90;99.90
23081;DHT22;11708;50.570;8.532;2022-12-17T06:39:07;-5.90;99.90
23081;DHT22;11708;50.570;8.532;2022-12-17T06:41:51;-5.90;99.90
23081;DHT22;11708;50.570;8.532;2022-12-17T06:44:37;-5.90;99.90
23081;DHT22;11708;50.570;8.532;2022-12-17T06:47:21;-5.90;99.90
23081;DHT22;11708;50.570;8.532;2022-12-17T06:50:06;-5.90;99.90
23081;DHT22;11708;50.570;8.532;2022-12-17T06:53:01;-5.90;99.90
23081;DHT22;11708;50.570;8.532;2022-12-17T06:55:45;-5.80;99.90
23081;DHT22;11708;50.570;8.532;2022-12-17T06:58:30;-5.90;99.90
23081;DHT22;11708;50.570;8.532;2022-12-17T07:01:14;-5.90;99.90
23081;DHT22;11708;50.570;8.532;2022-12-17T07:03:59;-5.90;99.90
23081;DHT22;11708;50.570;8.532;2022-12-17T07:06:43;-6.00;99.90
23081;DHT22;11708;50.570;8.532;2022-12-17T07:09:27;-5.90;99.90
23081;DHT22;11708;50.570;8.532;2022-12-17T07:12:11;-5.90;99.90
23081;DHT22;11708;50.570;8.532;2022-12-17T07:14:55;-5.90;99.90
23081;DHT22;11708;50.570;8.532;2022-12-17T07:17:39;-5.90;99.90
23081;DHT22;11708;50.570;8.532;2022-12-17T07:20:23;-5.90;99.90
23081;DHT22;11708;50.570;8.532;2022-12-17T07:23:15;-5.90;99.90
23081;DHT22;11708;50.570;8.532;2022-12-17T07:25:59;-5.90;99.90
23081;DHT22;11708;50.570;8.532;2022-12-17T07:28:43;-5.80;99.90
23081;DHT22;11708;50.570;8.532;2022-12-17T07:31:27;-5.80;99.90
23081;DHT22;11708;50.570;8.532;2022-12-17T07:34:11;-5.80;99.90
23081;DHT22;11708;50.570;8.532;2022-12-17T07:36:55;-5.60;99.90
23081;DHT22;11708;50.570;8.532;2022-12-17T07:39:42;-5.70;99.90
23081;DHT22;11708;50.570;8.532;2022-12-17T07:42:26;-5.70;99.90
23081;DHT22;11708;50.570;8.532;2022-12-17T07:45:10;-5.70;99.90
23081;DHT22;11708;50.570;8.532;2022-12-17T07:47:54;-5.70;99.90
23081;DHT22;11708;50.570;8.532;2022-12-17T07:50:38;-5.60;99.90
23081;DHT22;11708;50.570;8.532;2022-12-17T07:53:22;-5.60;99.90
23081;DHT22;11708;50.570;8.532;2022-12-17T07:56:06;-5.60;99.90
23081;DHT22;11708;50.570;8.532;2022-12-17T07:58:53;-5.60;99.90
23081;DHT22;11708;50.570;8.532;2022-12-17T08:01:37;-5.60;99.90
23081;DHT22;11708;50.570;8.532;2022-12-17T08:04:22;-5.60;99.90
23081;DHT22;11708;50.570;8.532;2022-12-17T08:09:51;-5.60;99.90
23081;DHT22;11708;50.570;8.532;2022-12-17T08:12:35;-5.50;99.90
23081;DHT22;11708;50.570;8.532;2022-12-17T08:15:21;-5.50;99.90
23081;DHT22;11708;50.570;8.532;2022-12-17T08:18:07;-5.40;99.90
23081;DHT22;11708;50.570;8.532;2022-12-17T08:20:53;-5.40;99.90
23081;DHT22;11708;50.570;8.532;2022-12-17T08:23:39;-5.40;99.90
23081;DHT22;11708;50.570;8.532;2022-12-17T08:26:23;-5.40;99.90
23081;DHT22;11708;50.570;8.532;2022-12-17T08:29:20;-5.50;99.90
23081;DHT22;11708;50.570;8.532;2022-12-17T08:32:07;-5.40;99.90
23081;DHT22;11708;50.570;8.532;2022-12-17T08:34:52;-5.40;99.90
23081;DHT22;11708;50.570;8.532;2022-12-17T08:37:36;-5.30;99.90
23081;DHT22;11708;50.570;8.532;2022-12-17T08:40:21;-5.30;99.90
23081;DHT22;11708;50.570;8.532;2022-12-17T08:43:05;-5.30;99.90
23081;DHT22;11708;50.570;8.532;2022-12-17T08:45:51;-5.30;99.90
23081;DHT22;11708;50.570;8.532;2022-12-17T08:48:36;-5.30;99.90
23081;DHT22;11708;50.570;8.532;2022-12-17T08:51:21;-5.30;99.90
23081;DHT22;11708;50.570;8.532;2022-12-17T08:54:09;-5.40;99.90
23081;DHT22;11708;50.570;8.532;2022-12-17T08:56:53;-7.20;99.90
23081;DHT22;11708;50.570;8.532;2022-12-17T08:59:38;-5.40;99.90
23081;DHT22;11708;50.570;8.532;2022-12-17T09:02:22;-5.50;99.90
23081;DHT22;11708;50.570;8.532;2022-12-17T09:05:06;-5.50;99.90
23081;DHT22;11708;50.570;8.532;2022-12-17T09:08:02;-5.50;99.90
23081;DHT22;11708;50.570;8.532;2022-12-17T09:10:47;-5.50;99.90
23081;DHT22;11708;50.570;8.532;2022-12-17T09:13:31;-5.40;99.90
23081;DHT22;11708;50.570;8.532;2022-12-17T09:16:15;-5.40;99.90
23081;DHT22;11708;50.570;8.532;2022-12-17T09:19:00;-5.40;99.90
23081;DHT22;11708;50.570;8.532;2022-12-17T09:21:44;-5.30;99.90
23081;DHT22;11708;50.570;8.532;2022-12-17T09:24:28;-5.30;99.90
23081;DHT22;11708;50.570;8.532;2022-12-17T09:27:16;-5.20;99.90
23081;DHT22;11708;50.570;8.532;2022-12-17T09:30:01;-5.10;99.90
23081;DHT22;11708;50.570;8.532;2022-12-17T09:32:45;-5.10;99.90
23081;DHT22;11708;50.570;8.532;2022-12-17T09:35:30;-5.10;99.90
23081;DHT22;11708;50.570;8.532;2022-12-17T09:38:15;-5.10;99.90
23081;DHT22;11708;50.570;8.532;2022-12-17T09:47:36;-5.00;99.90
23081;DHT22;11708;50.570;8.532;2022-12-17T09:50:22;-4.90;99.90
23081;DHT22;11708;50.570;8.532;2022-12-17T09:53:22;-4.90;99.90
23081;DHT22;11708;50.570;8.532;2022-12-17T09:56:11;-4.90;99.90
23081;DHT22;11708;50.570;8.532;2022-12-17T09:58:58;-4.90;99.90
23081;DHT22;11708;50.570;8.532;2022-12-17T10:01:42;-4.90;99.90
23081;DHT22;11708;50.570;8.532;2022-12-17T10:04:39;-4.80;99.90
23081;DHT22;11708;50.570;8.532;2022-12-17T10:07:27;-4.80;99.90
23081;DHT22;11708;50.570;8.532;2022-12-17T10:10:20;-4.80;99.90
23081;DHT22;11708;50.570;8.532;2022-12-17T10:13:12;-4.80;99.90
23081;DHT22;11708;50.570;8.532;2022-12-17T10:15:58;-4.80;99.90
23081;DHT22;11708;50.570;8.532;2022-12-17T10:18:44;-4.70;99.90
23081;DHT22;11708;50.570;8.532;2022-12-17T10:21:29;-4.60;99.90
23081;DHT22;11708;50.570;8.532;2022-12-17T10:24:16;-4.70;99.90
23081;DHT22;11708;50.570;8.532;2022-12-17T10:27:08;-4.60;99.90
23081;DHT22;11708;50.570;8.532;2022-12-17T10:29:52;-4.60;99.90
23081;DHT22;11708;50.570;8.532;2022-12-17T10:32:37;-4.60;99.90
23081;DHT22;11708;50.570;8.532;2022-12-17T10:35:24;-4.50;99.90
23081;DHT22;11708;50.570;8.532;2022-12-17T10:38:21;-4.50;99.90
23081;DHT22;11708;50.570;8.532;2022-12-17T10:41:24;-4.50;99.90
23081;DHT22;11708;50.570;8.532;2022-12-17T10:44:36;-4.50;99.90
23081;DHT22;11708;50.570;8.532;2022-12-17T10:47:25;-4.50;99.90
23081;DHT22;11708;50.570;8.532;2022-12-17T10:50:19;-4.40;99.90
23081;DHT22;11708;50.570;8.532;2022-12-17T10:53:15;-4.40;99.90
23081;DHT22;11708;50.570;8.532;2022-12-17T10:56:00;-4.40;99.90
23081;DHT22;11708;50.570;8.532;2022-12-17T10:58:49;-4.30;99.90
23081;DHT22;11708;50.570;8.532;2022-12-17T11:01:35;-4.20;99.90
23081;DHT22;11708;50.570;8.532;2022-12-17T11:07:23;-4.20;99.90
23081;DHT22;11708;50.570;8.532;2022-12-17T11:10:35;-4.20;99.90
23081;DHT22;11708;50.570;8.532;2022-12-17T11:13:44;-4.50;99.90
23081;DHT22;11708;50.570;8.532;2022-12-17T11:16:33;-3.90;99.90
23081;DHT22;11708;50.570;8.532;2022-12-17T11:19:46;-4.20;99.90
23081;DHT22;11708;50.570;8.532;2022-12-17T11:22:42;-4.20;99.90
23081;DHT22;11708;50.570;8.532;2022-12-17T11:25:31;-4.20;99.90
23081;DHT22;11708;50.570;8.532;2022-12-17T11:28:22;-4.30;99.90
23081;DHT22;11708;50.570;8.532;2022-12-17T11:37:30;-4.10;99.90
23081;DHT22;11708;50.570;8.532;2022-12-17T11:45:59;-4.10;99.90
23081;DHT22;11708;50.570;8.532;2022-12-17T11:48:57;-4.10;99.90
23081;DHT22;11708;50.570;8.532;2022-12-17T11:55:00;-4.10;99.90
23081;DHT22;11708;50.570;8.532;2022-12-17T11:58:22;-4.00;99.90
23081;DHT22;11708;50.570;8.532;2022-12-17T12:07:41;-4.10;99.90
23081;DHT22;11708;50.570;8.532;2022-12-17T12:10:55;-3.90;99.90
23081;DHT22;11708;50.570;8.532;2022-12-17T12:13:59;-4.10;99.90
23081;DHT22;11708;50.570;8.532;2022-12-17T12:26:09;-3.90;99.90
23081;DHT22;11708;50.570;8.532;2022-12-17T12:35:42;-3.80;99.90
23081;DHT22;11708;50.570;8.532;2022-12-17T12:38:36;-3.80;99.90
23081;DHT22;11708;50.570;8.532;2022-12-17T12:41:33;-3.70;99.90
23081;DHT22;11708;50.570;8.532;2022-12-17T12:53:40;-3.60;99.90
23081;DHT22;11708;50.570;8.532;2022-12-17T12:56:32;-3.70;99.90
23081;DHT22;11708;50.570;8.532;2022-12-17T12:59:33;-2.80;99.90
23081;DHT22;11708;50.570;8.532;2022-12-17T13:02:36;-3.60;99.90
23081;DHT22;11708;50.570;8.532;2022-12-17T13:10:31;-3.60;99.90
23081;DHT22;11708;50.570;8.532;2022-12-17T13:13:09;-3.60;99.90
23081;DHT22;11708;50.570;8.532;2022-12-17T13:15:43;-3.60;99.90
23081;DHT22;11708;50.570;8.532;2022-12-17T13:20:55;-3.60;99.90
23081;DHT22;11708;50.570;8.532;2022-12-17T13:28:58;-3.70;99.90
23081;DHT22;11708;50.570;8.532;2022-12-17T13:31:27;-3.70;99.90
23081;DHT22;11708;50.570;8.532;2022-12-17T13:42:35;-3.80;99.90
23081;DHT22;11708;50.570;8.532;2022-12-17T13:45:01;-3.90;99.90
23081;DHT22;11708;50.570;8.532;2022-12-17T13:47:34;-3.90;99.90
23081;DHT22;11708;50.570;8.532;2022-12-17T13:50:13;-4.00;99.90
23081;DHT22;11708;50.570;8.532;2022-12-17T13:52:42;-3.90;99.90
23081;DHT22;11708;50.570;8.532;2022-12-17T13:55:12;-3.80;99.90
23081;DHT22;11708;50.570;8.532;2022-12-17T13:57:45;-3.80;99.90
23081;DHT22;11708;50.570;8.532;2022-12-17T14:00:19;-3.80;99.90
23081;DHT22;11708;50.570;8.532;2022-12-17T14:02:45;-3.70;99.90
23081;DHT22;11708;50.570;8.532;2022-12-17T14:05:33;-3.80;99.90
23081;DHT22;11708;50.570;8.532;2022-12-17T14:08:02;-3.70;99.90
23081;DHT22;11708;50.570;8.532;2022-12-17T14:10:30;-3.70;99.90
23081;DHT22;11708;50.570;8.532;2022-12-17T14:13:11;-2.90;99.90
23081;DHT22;11708;50.570;8.532;2022-12-17T14:15:47;-3.80;99.90
23081;DHT22;11708;50.570;8.532;2022-12-17T14:18:17;-3.80;99.90
23081;DHT22;11708;50.570;8.532;2022-12-17T14:20:43;-3.80;99.90
23081;DHT22;11708;50.570;8.532;2022-12-17T14:23:28;-3.80;99.90
23081;DHT22;11708;50.570;8.532;2022-12-17T14:25:54;-3.80;99.90
23081;DHT22;11708;50.570;8.532;2022-12-17T14:28:32;-3.90;99.90
23081;DHT22;11708;50.570;8.532;2022-12-17T14:33:40;-3.90;99.90
23081;DHT22;11708;50.570;8.532;2022-12-17T14:36:18;-4.00;99.90
23081;DHT22;11708;50.570;8.532;2022-12-17T14:38:52;-4.00;99.90
23081;DHT22;11708;50.570;8.532;2022-12-17T14:41:18;-4.00;99.90
23081;DHT22;11708;50.570;8.532;2022-12-17T14:44:03;-4.00;99.90
23081;DHT22;11708;50.570;8.532;2022-12-17T14:46:29;-4.00;99.90
23081;DHT22;11708;50.570;8.532;2022-12-17T14:48:57;-4.00;99.90
23081;DHT22;11708;50.570;8.532;2022-12-17T14:54:20;-4.00;99.90
23081;DHT22;11708;50.570;8.532;2022-12-17T14:56:48;-4.10;99.90
23081;DHT22;11708;50.570;8.532;2022-12-17T15:01:52;-4.20;99.90
23081;DHT22;11708;50.570;8.532;2022-12-17T15:04:18;-4.20;99.90
23081;DHT22;11708;50.570;8.532;2022-12-17T15:09:11;-4.30;99.90
23081;DHT22;11708;50.570;8.532;2022-12-17T15:11:38;-4.30;99.90
23081;DHT22;11708;50.570;8.532;2022-12-17T15:16:30;-4.30;99.90
23081;DHT22;11708;50.570;8.532;2022-12-17T15:21:23;-4.30;99.90
23081;DHT22;11708;50.570;8.532;2022-12-17T15:28:42;-4.50;99.90
23081;DHT22;11708;50.570;8.532;2022-12-17T15:31:12;-4.50;99.90
23081;DHT22;11708;50.570;8.532;2022-12-17T15:33:39;-4.60;99.90
23081;DHT22;11708;50.570;8.532;2022-12-17T15:36:05;-4.60;99.90
23081;DHT22;11708;50.570;8.532;2022-12-17T15:38:30;-4.30;99.90
23081;DHT22;11708;50.570;8.532;2022-12-17T15:41:00;-4.60;99.90
23081;DHT22;11708;50.570;8.532;2022-12-17T15:46:12;-4.60;99.90
23081;DHT22;11708;50.570;8.532;2022-12-17T15:56:02;-4.70;99.90
23081;DHT22;11708;50.570;8.532;2022-12-17T15:58:34;-4.70;99.90
23081;DHT22;11708;50.570;8.532;2022-12-17T16:01:00;-4.70;99.90
23081;DHT22;11708;50.570;8.532;2022-12-17T16:03:29;-4.80;99.90
23081;DHT22;11708;50.570;8.532;2022-12-17T16:06:00;-4.70;99.90
23081;DHT22;11708;50.570;8.532;2022-12-17T16:13:17;-4.80;99.90
23081;DHT22;11708;50.570;8.532;2022-12-17T16:16:02;-4.70;99.90
23081;DHT22;11708;50.570;8.532;2022-12-17T16:18:28;-4.80;99.90
23081;DHT22;11708;50.570;8.532;2022-12-17T16:20:54;-4.60;99.90
23081;DHT22;11708;50.570;8.532;2022-12-17T16:23:19;-4.60;99.90
23081;DHT22;11708;50.570;8.532;2022-12-17T16:25:57;-4.60;99.90
23081;DHT22;11708;50.570;8.532;2022-12-17T16:28:23;-4.90;99.90
23081;DHT22;11708;50.570;8.532;2022-12-17T16:31:09;-4.60;99.90
23081;DHT22;11708;50.570;8.532;2022-12-17T16:33:37;-4.60;99.90
23081;DHT22;11708;50.570;8.532;2022-12-17T16:36:05;-4.60;99.90
23081;DHT22;11708;50.570;8.532;2022-12-17T16:38:31;-4.60;99.90
23081;DHT22;11708;50.570;8.532;2022-12-17T16:40:59;-4.60;99.90
23081;DHT22;11708;50.570;8.532;2022-12-17T16:43:26;-4.60;99.90
23081;DHT22;11708;50.570;8.532;2022-12-17T16:45:52;-4.60;99.90
23081;DHT22;11708;50.570;8.532;2022-12-17T16:48:19;-4.70;99.90
23081;DHT22;11708;50.570;8.532;2022-12-17T16:50:48;-4.60;99.90
23081;DHT22;11708;50.570;8.532;2022-12-17T16:53:14;-3.50;99.90
23081;DHT22;11708;50.570;8.532;2022-12-17T16:56:00;-4.60;99.90
23081;DHT22;11708;50.570;8.532;2022-12-17T16:58:26;-4.80;99.90
23081;DHT22;11708;50.570;8.532;2022-12-17T17:00:55;-4.70;99.90
23081;DHT22;11708;50.570;8.532;2022-12-17T17:03:20;-4.80;99.90
23081;DHT22;11708;50.570;8.532;2022-12-17T17:05:47;-4.80;99.90
23081;DHT22;11708;50.570;8.532;2022-12-17T17:08:12;-4.80;99.90
23081;DHT22;11708;50.570;8.532;2022-12-17T17:10:41;-4.80;99.90
23081;DHT22;11708;50.570;8.532;2022-12-17T17:13:06;-4.80;99.90
23081;DHT22;11708;50.570;8.532;2022-12-17T17:15:32;-5.00;99.90
23081;DHT22;11708;50.570;8.532;2022-12-17T17:20:25;-4.80;99.90
23081;DHT22;11708;50.570;8.532;2022-12-17T17:22:50;-4.90;99.90
23081;DHT22;11708;50.570;8.532;2022-12-17T17:25:16;-4.90;99.90
23081;DHT22;11708;50.570;8.532;2022-12-17T17:27:42;-4.80;99.90
23081;DHT22;11708;50.570;8.532;2022-12-17T17:30:09;-4.90;99.90
23081;DHT22;11708;50.570;8.532;2022-12-17T17:32:35;-4.90;99.90
23081;DHT22;11708;50.570;8.532;2022-12-17T17:37:27;-4.90;99.90
23081;DHT22;11708;50.570;8.532;2022-12-17T17:39:53;-5.00;99.90
23081;DHT22;11708;50.570;8.532;2022-12-17T17:42:18;-5.00;99.90
23081;DHT22;11708;50.570;8.532;2022-12-17T17:44:44;-5.00;99.90
23081;DHT22;11708;50.570;8.532;2022-12-17T17:47:10;-5.00;99.90
23081;DHT22;11708;50.570;8.532;2022-12-17T17:49:35;-5.00;99.90
23081;DHT22;11708;50.570;8.532;2022-12-17T17:52:02;-5.00;99.90
23081;DHT22;11708;50.570;8.532;2022-12-17T17:54:28;-4.80;99.90
23081;DHT22;11708;50.570;8.532;2022-12-17T17:59:19;-5.10;99.90
23081;DHT22;11708;50.570;8.532;2022-12-17T18:01:48;-5.00;99.90
23081;DHT22;11708;50.570;8.532;2022-12-17T18:04:17;-5.10;99.90
23081;DHT22;11708;50.570;8.532;2022-12-17T18:06:44;-5.00;99.90
23081;DHT22;11708;50.570;8.532;2022-12-17T18:09:11;-5.20;99.90
23081;DHT22;11708;50.570;8.532;2022-12-17T18:11:38;-5.00;99.90
23081;DHT22;11708;50.570;8.532;2022-12-17T18:14:06;-5.00;99.90
23081;DHT22;11708;50.570;8.532;2022-12-17T18:16:43;-5.00;99.90
23081;DHT22;11708;50.570;8.532;2022-12-17T18:19:18;-5.10;99.90
23081;DHT22;11708;50.570;8.532;2022-12-17T18:24:16;-4.90;99.90
23081;DHT22;11708;50.570;8.532;2022-12-17T18:26:44;-4.90;99.90
23081;DHT22;11708;50.570;8.532;2022-12-17T18:29:13;-5.00;99.90
23081;DHT22;11708;50.570;8.532;2022-12-17T18:31:39;-4.90;99.90
23081;DHT22;11708;50.570;8.532;2022-12-17T18:34:06;-5.00;99.90
23081;DHT22;11708;50.570;8.532;2022-12-17T18:36:35;-5.00;99.90
23081;DHT22;11708;50.570;8.532;2022-12-17T18:39:34;-4.90;99.90
23081;DHT22;11708;50.570;8.532;2022-12-17T18:42:00;-5.00;99.90
23081;DHT22;11708;50.570;8.532;2022-12-17T18:44:44;-5.00;99.90
23081;DHT22;11708;50.570;8.532;2022-12-17T18:47:12;-5.00;99.90
23081;DHT22;11708;50.570;8.532;2022-12-17T18:49:38;-5.00;99.90
23081;DHT22;11708;50.570;8.532;2022-12-17T18:52:04;-4.90;99.90
23081;DHT22;11708;50.570;8.532;2022-12-17T18:54:30;-5.10;99.90
23081;DHT22;11708;50.570;8.532;2022-12-17T18:56:57;-5.00;99.90
23081;DHT22;11708;50.570;8.532;2022-12-17T18:59:25;-5.00;99.90
23081;DHT22;11708;50.570;8.532;2022-12-17T19:01:52;-5.00;99.90
23081;DHT22;11708;50.570;8.532;2022-12-17T19:09:40;-4.70;99.90
23081;DHT22;11708;50.570;8.532;2022-12-17T19:12:08;-4.70;99.90
23081;DHT22;11708;50.570;8.532;2022-12-17T19:14:34;-4.60;99.90
23081;DHT22;11708;50.570;8.532;2022-12-17T19:17:00;-4.60;99.90
23081;DHT22;11708;50.570;8.532;2022-12-17T19:21:58;-4.60;99.90
23081;DHT22;11708;50.570;8.532;2022-12-17T19:24:25;-4.60;99.90
23081;DHT22;11708;50.570;8.532;2022-12-17T19:26:51;-4.60;99.90
23081;DHT22;11708;50.570;8.532;2022-12-17T19:29:17;-4.70;99.90
23081;DHT22;11708;50.570;8.532;2022-12-17T19:31:43;-5.40;99.90